createdAt,value
2022-11-03T09:11:33.642Z,26.24
2022-11-03T09:14:06.534Z,25.70
2022-11-03T09:16:38.813Z,25.63
2022-11-03T09:19:11.134Z,25.65
2022-11-03T09:21:44.571Z,25.85
2022-11-03T09:24:16.955Z,25.90
2022-11-03T09:26:55.143Z,25.90
2022-11-03T09:29:51.625Z,25.91
2022-11-03T09:32:24.661Z,25.69
2022-11-03T09:34:57.428Z,25.67
2022-11-03T09:37:31.323Z,25.78
2022-11-03T10:04:04.621Z,26.67
2022-11-03T10:17:08.032Z,29.83
2022-11-03T10:19:55.487Z,29.79
2022-11-03T10:23:21.477Z,29.81
2022-11-03T10:26:01.033Z,29.81
2022-11-03T10:29:00.861Z,29.78
2022-11-03T10:33:31.961Z,29.72
2022-11-03T10:36:11.524Z,29.72
2022-11-03T10:38:53.600Z,29.71
2022-11-03T10:41:33.946Z,29.64
2022-11-03T10:44:21.464Z,29.52
2022-11-03T10:47:04.793Z,29.49
2022-11-03T10:49:43.900Z,29.39
2022-11-03T10:52:26.184Z,29.39
2022-11-03T10:55:09.486Z,29.42
2022-11-03T10:58:16.465Z,29.22
2022-11-03T11:00:50.481Z,29.03
2022-11-03T11:03:23.778Z,28.93
2022-11-03T11:05:59.089Z,28.90
2022-11-03T11:08:35.934Z,28.98
2022-11-03T11:11:12.892Z,28.97
2022-11-03T11:13:45.734Z,28.92
2022-11-03T11:16:52.661Z,28.83
2022-11-03T11:19:35.589Z,28.69
2022-11-03T11:22:20.095Z,28.61
2022-11-03T11:25:09.488Z,28.52
2022-11-03T11:28:00.277Z,28.37
2022-11-03T11:31:08.046Z,28.45
2022-11-03T11:33:44.841Z,28.52
2022-11-03T11:36:31.823Z,28.48
2022-11-03T11:39:06.926Z,28.45
2022-11-03T11:42:16.262Z,28.36
2022-11-03T11:45:08.901Z,28.31
2022-11-03T11:47:57.486Z,28.28
2022-11-03T11:50:38.600Z,28.26
2022-11-03T11:53:31.964Z,28.26
2022-11-03T11:56:07.151Z,28.20
2022-11-03T11:58:47.655Z,28.18
2022-11-03T12:01:29.914Z,28.14
2022-11-03T12:04:09.724Z,28.10
2022-11-03T12:09:24.532Z,27.84
2022-11-03T12:12:06.867Z,27.74
2022-11-03T12:14:44.847Z,27.56
2022-11-03T12:17:39.056Z,27.65
2022-11-03T12:20:39.029Z,27.65
2022-11-03T12:23:14.085Z,27.57
2022-11-03T12:25:48.264Z,27.66
2022-11-03T12:28:39.289Z,27.60
2022-11-03T12:31:15.747Z,27.85
2022-11-03T12:33:47.477Z,27.73
2022-11-03T12:36:19.867Z,27.64
2022-11-03T12:38:52.803Z,27.49
2022-11-03T12:41:25.950Z,27.54
2022-11-03T12:44:00.170Z,27.50
2022-11-03T12:46:32.579Z,27.42
2022-11-03T12:49:04.718Z,27.50
2022-11-03T12:51:36.571Z,27.50
2022-11-03T12:54:09.358Z,27.55
2022-11-03T12:56:41.519Z,27.60
2022-11-03T12:59:15.234Z,27.51
2022-11-03T13:01:47.355Z,27.42
2022-11-03T13:04:19.896Z,27.48
2022-11-03T13:06:52.107Z,27.49
2022-11-03T13:09:25.482Z,27.27
2022-11-03T13:12:14.385Z,27.44
2022-11-03T13:14:48.748Z,27.37
2022-11-03T13:17:21.049Z,27.42
2022-11-03T13:19:54.773Z,27.47
2022-11-03T13:22:26.941Z,27.54
2022-11-03T13:24:59.330Z,27.54
2022-11-03T13:27:32.587Z,27.55
2022-11-03T13:30:06.378Z,27.55
2022-11-03T13:32:38.733Z,27.62
2022-11-03T13:35:13.913Z,27.59
2022-11-03T13:37:47.042Z,27.57
2022-11-03T13:43:13.165Z,27.58
2022-11-03T13:45:46.940Z,27.56
2022-11-03T13:51:13.600Z,27.41
2022-11-03T13:59:31.442Z,27.47
2022-11-03T14:05:11.848Z,27.46
2022-11-03T14:07:43.929Z,27.51
2022-11-03T14:10:17.599Z,27.50
2022-11-03T14:12:49.555Z,27.43
2022-11-03T14:15:22.075Z,27.31
2022-11-03T14:17:55.882Z,27.26
2022-11-03T14:23:05.620Z,27.36
2022-11-03T14:25:37.736Z,27.44
2022-11-03T14:28:10.855Z,27.36
2022-11-03T14:30:42.963Z,27.28
2022-11-03T14:33:16.521Z,27.22
2022-11-03T14:35:51.075Z,27.16
2022-11-03T14:38:23.298Z,27.18
2022-11-03T14:41:12.152Z,27.17
2022-11-03T14:43:44.622Z,27.13
2022-11-03T14:46:17.099Z,27.13
2022-11-03T14:48:50.802Z,27.07
2022-11-03T14:51:28.097Z,27.16
2022-11-03T14:54:01.140Z,26.62
2022-11-03T14:56:33.894Z,26.06
2022-11-03T14:59:21.381Z,25.89
2022-11-03T15:01:54.810Z,25.86
2022-11-03T15:04:29.862Z,25.84
2022-11-03T15:07:02.894Z,25.81
2022-11-03T15:09:39.192Z,25.83
2022-11-03T15:12:16.606Z,25.83
2022-11-03T15:14:51.261Z,25.81
2022-11-03T15:17:26.499Z,25.71
2022-11-03T15:20:02.234Z,25.70
2022-11-03T15:25:32.241Z,25.64
2022-11-03T15:28:13.225Z,25.66
2022-11-03T15:30:46.494Z,25.63
2022-11-03T15:33:19.779Z,25.61
2022-11-03T15:35:55.590Z,25.59
2022-11-03T15:38:30.195Z,25.58
2022-11-03T15:41:16.483Z,25.61
2022-11-03T15:43:52.515Z,25.59
2022-11-03T15:46:26.270Z,25.61
2022-11-03T15:48:59.074Z,25.61
2022-11-03T15:51:34.520Z,25.50
2022-11-03T15:54:07.458Z,25.53
2022-11-03T15:56:39.918Z,25.51
2022-11-03T15:59:22.561Z,25.57
2022-11-03T16:02:03.645Z,25.58
2022-11-03T16:04:48.448Z,25.69
2022-11-03T16:07:23.678Z,25.72
2022-11-03T16:09:58.329Z,25.54
2022-11-03T16:12:33.640Z,25.53
2022-11-03T16:15:07.716Z,25.49
2022-11-03T16:17:45.350Z,25.46
2022-11-03T16:20:20.787Z,25.45
2022-11-03T16:22:59.386Z,25.46
2022-11-03T16:25:33.047Z,25.44
2022-11-03T16:28:08.166Z,25.45
2022-11-03T16:30:41.922Z,25.37
2022-11-03T16:33:15.911Z,25.38
2022-11-03T16:35:49.158Z,25.30
2022-11-03T16:38:30.168Z,25.30
2022-11-03T16:41:02.721Z,25.24
2022-11-03T16:43:35.169Z,25.23
2022-11-03T16:46:08.133Z,25.28
2022-11-03T16:48:40.236Z,25.29
2022-11-03T16:51:12.740Z,25.21
2022-11-03T16:53:50.500Z,25.09
2022-11-03T16:56:24.282Z,25.02
2022-11-03T16:58:56.302Z,25.07
2022-11-03T17:01:28.877Z,25.22
2022-11-03T17:04:01.666Z,25.29
2022-11-03T17:06:34.232Z,25.25
2022-11-03T17:09:08.930Z,25.14
2022-11-03T17:11:44.222Z,25.16
2022-11-03T17:14:17.073Z,25.16
2022-11-03T17:16:50.231Z,25.11
2022-11-03T17:19:22.305Z,25.05
2022-11-03T17:21:56.575Z,25.00
2022-11-03T17:24:30.686Z,25.03
2022-11-03T17:27:11.403Z,24.85
2022-11-03T17:29:53.663Z,24.86
2022-11-03T17:32:31.951Z,24.72
2022-11-03T17:35:04.438Z,24.87
2022-11-03T17:37:39.055Z,25.01
2022-11-03T17:40:19.731Z,24.95
2022-11-03T17:42:53.585Z,24.82
2022-11-03T17:45:27.906Z,24.89
2022-11-03T17:48:00.378Z,24.88
2022-11-03T17:50:34.919Z,24.90
2022-11-03T17:53:09.666Z,24.80
2022-11-03T17:55:53.178Z,24.85
2022-11-03T17:58:46.525Z,24.82
2022-11-03T18:01:26.588Z,24.81
2022-11-03T18:03:58.344Z,24.70
2022-11-03T18:06:30.764Z,24.69
2022-11-03T18:09:03.070Z,24.78
2022-11-03T18:11:57.828Z,24.77
2022-11-03T18:14:32.453Z,24.71
2022-11-03T18:17:06.867Z,24.75
2022-11-03T18:19:39.192Z,24.72
2022-11-03T18:22:13.190Z,24.72
2022-11-03T18:24:46.375Z,24.67
2022-11-03T18:27:24.978Z,25.04
2022-11-03T18:29:57.802Z,25.24
2022-11-03T18:32:35.678Z,24.97
2022-11-03T18:35:10.851Z,24.72
2022-11-03T18:37:45.719Z,24.79
2022-11-03T18:40:20.371Z,25.08
2022-11-03T18:42:54.567Z,25.11
2022-11-03T18:45:27.428Z,25.04
2022-11-03T18:47:59.465Z,25.13
2022-11-03T18:50:31.999Z,25.11
2022-11-03T18:53:04.206Z,25.16
2022-11-03T18:55:37.017Z,25.10
2022-11-03T18:58:18.895Z,24.78
2022-11-03T19:00:50.891Z,24.94
2022-11-03T19:03:24.235Z,25.12
2022-11-03T19:05:57.243Z,25.13
2022-11-03T19:08:32.069Z,25.13
2022-11-03T19:11:05.242Z,25.00
2022-11-03T19:13:41.616Z,25.02
2022-11-03T19:16:18.908Z,25.00
2022-11-03T19:18:51.740Z,24.97
2022-11-03T19:21:24.958Z,25.03
2022-11-03T19:23:58.505Z,25.04
2022-11-03T19:26:35.139Z,24.98
2022-11-03T19:29:14.721Z,25.00
2022-11-03T19:31:50.319Z,24.57
2022-11-03T19:34:25.545Z,24.95
2022-11-03T19:36:58.165Z,24.98
2022-11-03T19:39:34.336Z,24.86
2022-11-03T19:42:32.412Z,24.95
2022-11-03T19:45:08.198Z,24.93
2022-11-03T19:47:57.710Z,24.89
2022-11-03T19:50:37.405Z,25.04
2022-11-03T19:53:10.917Z,24.95
2022-11-03T19:55:46.495Z,24.65
2022-11-03T19:58:20.890Z,24.47
2022-11-03T20:00:54.952Z,24.46
2022-11-03T20:03:28.298Z,24.38
2022-11-03T20:06:01.425Z,24.35
2022-11-03T20:08:35.843Z,24.23
2022-11-03T20:11:10.209Z,24.29
2022-11-03T20:13:46.075Z,24.21
2022-11-03T20:16:22.416Z,24.27
2022-11-03T20:18:56.250Z,24.31
2022-11-03T20:21:34.218Z,24.28
2022-11-03T20:24:08.175Z,24.26
2022-11-03T20:26:41.639Z,24.19
2022-11-03T20:29:18.703Z,24.21
2022-11-03T20:31:54.137Z,24.21
2022-11-03T20:34:26.096Z,24.15
2022-11-03T20:37:01.456Z,24.08
2022-11-03T20:39:41.392Z,24.08
2022-11-03T20:42:21.543Z,24.14
2022-11-03T20:44:54.164Z,24.16
2022-11-03T20:47:30.121Z,24.04
2022-11-03T20:50:02.257Z,24.14
2022-11-03T20:52:34.433Z,24.15
2022-11-03T20:55:06.751Z,23.98
2022-11-03T20:57:39.343Z,23.71
2022-11-03T21:00:16.033Z,23.75
2022-11-03T21:02:51.041Z,23.88
2022-11-03T21:05:25.274Z,23.96
2022-11-03T21:07:58.475Z,24.01
2022-11-03T21:10:30.967Z,23.98
2022-11-03T21:13:02.935Z,23.87
2022-11-03T21:16:18.251Z,23.87
2022-11-03T21:19:02.910Z,23.69
2022-11-03T21:21:35.840Z,23.90
2022-11-03T21:24:08.753Z,23.92
2022-11-03T21:26:43.405Z,23.91
2022-11-03T21:29:27.462Z,23.92
2022-11-03T21:32:05.539Z,23.66
2022-11-03T21:34:39.640Z,23.80
2022-11-03T21:37:15.835Z,23.63
2022-11-03T21:39:48.874Z,23.59
2022-11-03T21:42:37.309Z,23.67
2022-11-03T21:45:10.667Z,23.88
2022-11-03T21:48:02.850Z,23.65
2022-11-03T21:50:35.412Z,23.58
2022-11-03T21:53:08.601Z,23.58
2022-11-03T21:55:41.047Z,23.47
2022-11-03T21:58:13.523Z,23.48
2022-11-03T22:00:47.241Z,23.63
2022-11-03T22:03:19.563Z,23.68
2022-11-03T22:05:53.095Z,23.58
2022-11-03T22:08:25.981Z,23.36
2022-11-03T22:11:22.807Z,23.36
2022-11-03T22:13:57.104Z,23.30
2022-11-03T22:16:42.205Z,23.87
2022-11-03T22:19:33.293Z,24.14
2022-11-03T22:22:26.021Z,24.18
2022-11-03T22:25:15.304Z,23.41
2022-11-03T22:27:48.044Z,23.33
2022-11-03T22:30:37.308Z,23.95
2022-11-03T22:33:10.013Z,24.00
2022-11-03T22:35:59.922Z,24.08
2022-11-03T22:38:47.239Z,23.69
2022-11-03T22:41:36.099Z,23.55
2022-11-03T22:44:26.162Z,23.38
2022-11-03T22:46:57.321Z,23.15
2022-11-03T22:49:29.798Z,23.33
2022-11-03T22:52:02.334Z,23.39
2022-11-03T22:54:36.131Z,23.82
2022-11-03T22:57:09.222Z,24.04
2022-11-03T22:59:41.757Z,23.97
2022-11-03T23:02:14.270Z,23.99
2022-11-03T23:04:46.216Z,24.12
2022-11-03T23:07:18.239Z,23.64
2022-11-03T23:09:52.750Z,23.35
2022-11-03T23:12:24.727Z,23.70
2022-11-03T23:15:14.138Z,23.72
2022-11-03T23:18:02.440Z,23.88
2022-11-03T23:20:51.895Z,23.50
2022-11-03T23:23:40.742Z,23.40
2022-11-03T23:26:14.756Z,23.81
2022-11-03T23:28:47.716Z,23.83
2022-11-03T23:31:19.715Z,23.70
2022-11-03T23:33:51.855Z,23.30
2022-11-03T23:36:25.109Z,23.56
2022-11-03T23:38:58.419Z,23.81
2022-11-03T23:41:33.129Z,23.87
2022-11-03T23:44:05.701Z,23.47
2022-11-03T23:46:54.198Z,23.29
2022-11-03T23:49:26.544Z,23.58
2022-11-03T23:51:58.802Z,23.70
2022-11-03T23:54:31.100Z,23.77
2022-11-03T23:57:21.495Z,23.14
2022-11-03T23:59:53.343Z,23.01
